createdAt,value
2023-05-15T00:02:21.011Z,7.05
2023-05-15T00:04:47.826Z,6.53
2023-05-15T00:07:14.617Z,6.82
2023-05-15T00:09:41.247Z,6.88
2023-05-15T00:12:08.172Z,6.78
2023-05-15T00:14:34.809Z,7.45
2023-05-15T00:17:01.483Z,6.75
2023-05-15T00:19:28.108Z,6.80
2023-05-15T00:21:55.370Z,7.00
2023-05-15T00:24:22.306Z,7.57
2023-05-15T00:26:49.009Z,7.80
2023-05-15T00:29:15.633Z,6.70
2023-05-15T00:31:42.267Z,6.93
2023-05-15T00:34:08.920Z,6.55
2023-05-15T00:36:35.736Z,6.57
2023-05-15T00:39:02.584Z,6.90
2023-05-15T00:41:38.895Z,6.90
2023-05-15T00:44:07.006Z,6.80
2023-05-15T00:46:36.267Z,6.80
2023-05-15T00:49:07.005Z,6.85
2023-05-15T00:51:33.644Z,7.15
2023-05-15T00:54:00.338Z,7.13
2023-05-15T00:56:30.294Z,6.70
2023-05-15T00:58:59.678Z,7.30
2023-05-15T01:01:26.650Z,6.90
2023-05-15T01:03:53.623Z,6.90
2023-05-15T01:06:20.334Z,7.25
2023-05-15T01:08:48.031Z,7.13
2023-05-15T01:11:16.578Z,7.25
2023-05-15T01:13:44.389Z,7.13
2023-05-15T01:16:11.426Z,6.97
2023-05-15T01:18:38.332Z,7.68
2023-05-15T01:21:11.143Z,7.45
2023-05-15T01:24:20.537Z,7.38
2023-05-15T01:27:05.765Z,7.25
2023-05-15T01:29:44.374Z,6.53
2023-05-15T01:32:28.243Z,7.32
2023-05-15T01:35:13.881Z,7.25
2023-05-15T01:37:45.644Z,7.30
2023-05-15T01:40:15.041Z,7.13
2023-05-15T01:42:49.751Z,7.43
2023-05-15T01:45:17.981Z,7.82
2023-05-15T01:47:46.227Z,7.57
2023-05-15T01:50:16.240Z,7.20
2023-05-15T01:52:50.595Z,7.45
2023-05-15T01:55:18.648Z,7.32
2023-05-15T01:57:47.976Z,7.68
2023-05-15T02:00:15.700Z,8.50
2023-05-15T02:02:43.999Z,7.95
2023-05-15T02:05:12.134Z,7.50
2023-05-15T02:07:39.285Z,7.40
2023-05-15T02:10:06.599Z,6.70
2023-05-15T02:12:34.551Z,6.82
2023-05-15T02:15:03.824Z,7.22
2023-05-15T02:17:31.465Z,8.25
2023-05-15T02:19:58.131Z,7.85
2023-05-15T02:22:24.776Z,7.97
2023-05-15T02:24:51.465Z,8.00
2023-05-15T02:27:24.234Z,7.10
2023-05-15T02:30:29.440Z,7.15
2023-05-15T02:33:08.137Z,7.50
2023-05-15T02:35:56.859Z,7.43
2023-05-15T02:39:00.706Z,6.88
2023-05-15T02:41:27.937Z,7.70
2023-05-15T02:43:56.241Z,7.63
2023-05-15T02:46:25.161Z,7.50
2023-05-15T02:48:53.492Z,7.20
2023-05-15T02:51:20.910Z,7.88
2023-05-15T02:53:47.749Z,6.70
2023-05-15T02:56:14.364Z,7.10
2023-05-15T02:58:41.368Z,7.85
2023-05-15T03:01:08.181Z,7.30
2023-05-15T03:03:34.882Z,7.75
2023-05-15T03:06:01.547Z,7.28
2023-05-15T03:08:28.811Z,8.23
2023-05-15T03:10:55.545Z,7.65
2023-05-15T03:13:22.166Z,8.00
2023-05-15T03:15:48.804Z,7.72
2023-05-15T03:18:17.242Z,8.00
2023-05-15T03:20:45.570Z,7.63
2023-05-15T03:23:12.188Z,7.72
2023-05-15T03:25:38.791Z,7.43
2023-05-15T03:28:05.683Z,7.85
2023-05-15T03:30:32.292Z,7.82
2023-05-15T03:32:58.952Z,7.38
2023-05-15T03:35:26.343Z,8.27
2023-05-15T03:37:53.184Z,7.57
2023-05-15T03:40:19.852Z,7.60
2023-05-15T03:42:46.585Z,7.20
2023-05-15T03:45:13.184Z,7.53
2023-05-15T03:47:39.855Z,7.13
2023-05-15T03:50:06.956Z,7.28
2023-05-15T03:52:33.670Z,7.60
2023-05-15T03:55:00.894Z,7.30
2023-05-15T03:57:27.613Z,7.53
2023-05-15T03:59:54.207Z,7.00
2023-05-15T04:02:20.846Z,7.70
2023-05-15T04:04:47.449Z,7.10
2023-05-15T04:07:14.079Z,7.78
2023-05-15T04:09:40.666Z,8.38
2023-05-15T04:12:07.453Z,7.88
2023-05-15T04:14:34.059Z,8.13
2023-05-15T04:17:00.906Z,8.00
2023-05-15T04:19:27.532Z,8.25
2023-05-15T04:21:54.165Z,8.88
2023-05-15T04:24:20.944Z,7.95
2023-05-15T04:26:47.644Z,7.80
2023-05-15T04:29:14.319Z,8.07
2023-05-15T04:31:40.990Z,7.30
2023-05-15T04:34:07.710Z,7.05
2023-05-15T04:36:34.881Z,7.10
2023-05-15T04:39:01.607Z,7.68
2023-05-15T04:41:28.293Z,7.75
2023-05-15T04:43:54.975Z,7.65
2023-05-15T04:46:21.727Z,8.10
2023-05-15T04:48:48.403Z,7.93
2023-05-15T04:51:15.049Z,7.65
2023-05-15T04:53:41.663Z,7.40
2023-05-15T04:56:08.291Z,7.28
2023-05-15T04:58:34.905Z,8.02
2023-05-15T05:01:03.870Z,8.30
2023-05-15T05:03:31.137Z,8.00
2023-05-15T05:05:57.809Z,8.32
2023-05-15T05:08:24.439Z,8.50
2023-05-15T05:10:56.803Z,8.23
2023-05-15T05:13:23.630Z,7.85
2023-05-15T05:15:50.342Z,9.30
2023-05-15T05:18:16.958Z,7.82
2023-05-15T05:20:43.558Z,8.40
2023-05-15T05:23:10.211Z,8.80
2023-05-15T05:25:36.795Z,9.30
2023-05-15T05:28:03.460Z,8.88
2023-05-15T05:30:30.085Z,10.23
2023-05-15T05:32:56.727Z,10.57
2023-05-15T05:35:23.592Z,10.10
2023-05-15T05:37:50.360Z,8.77
2023-05-15T05:40:17.662Z,10.10
2023-05-15T05:42:44.273Z,10.50
2023-05-15T05:45:11.372Z,9.88
2023-05-15T05:47:38.051Z,9.95
2023-05-15T05:50:05.541Z,9.52
2023-05-15T05:52:32.121Z,8.70
2023-05-15T05:54:58.701Z,9.15
2023-05-15T05:57:25.505Z,8.25
2023-05-15T05:59:52.202Z,9.25
2023-05-15T06:02:19.009Z,8.52
2023-05-15T06:04:46.211Z,9.13
2023-05-15T06:07:12.996Z,7.90
2023-05-15T06:09:39.611Z,7.88
2023-05-15T06:12:08.150Z,8.50
2023-05-15T06:14:35.926Z,7.68
2023-05-15T06:17:03.071Z,6.80
2023-05-15T06:19:30.293Z,6.60
2023-05-15T06:21:57.021Z,6.60
2023-05-15T06:24:23.633Z,6.43
2023-05-15T06:26:50.645Z,5.90
2023-05-15T06:29:18.922Z,5.82
2023-05-15T06:31:45.570Z,5.40
2023-05-15T06:34:12.246Z,5.68
2023-05-15T06:36:38.949Z,5.30
2023-05-15T06:39:05.704Z,5.80
2023-05-15T06:41:35.922Z,5.63
2023-05-15T06:44:02.623Z,5.33
2023-05-15T06:46:29.417Z,5.30
2023-05-15T06:48:56.096Z,4.70
2023-05-15T06:51:22.776Z,4.83
2023-05-15T06:53:49.584Z,4.73
2023-05-15T06:56:16.226Z,5.00
2023-05-15T06:58:42.820Z,5.07
2023-05-15T07:01:09.801Z,4.70
2023-05-15T07:03:36.546Z,4.33
2023-05-15T07:06:03.273Z,4.20
2023-05-15T07:08:30.006Z,4.60
2023-05-15T07:10:56.671Z,3.70
2023-05-15T07:13:23.846Z,4.47
2023-05-15T07:15:50.496Z,3.83
2023-05-15T07:18:17.949Z,3.90
2023-05-15T07:20:44.994Z,4.07
2023-05-15T07:23:11.685Z,3.90
2023-05-15T07:25:38.398Z,3.90
2023-05-15T07:28:05.260Z,4.10
2023-05-15T07:30:31.888Z,4.50
2023-05-15T07:32:58.568Z,4.70
2023-05-15T07:35:26.054Z,4.23
2023-05-15T07:37:52.920Z,5.03
2023-05-15T07:40:19.585Z,4.63
2023-05-15T07:42:46.961Z,4.70
2023-05-15T07:45:13.674Z,4.90
2023-05-15T07:47:45.220Z,4.43
2023-05-15T07:50:11.915Z,5.30
2023-05-15T07:52:38.711Z,5.33
2023-05-15T07:55:05.952Z,5.40
2023-05-15T07:57:32.565Z,5.60
2023-05-15T07:59:59.434Z,6.40
2023-05-15T08:02:26.109Z,6.90
2023-05-15T08:04:52.758Z,6.80
2023-05-15T08:07:19.407Z,6.37
2023-05-15T08:09:46.355Z,6.23
2023-05-15T08:12:21.235Z,6.73
2023-05-15T08:14:52.946Z,6.43
2023-05-15T08:17:20.755Z,6.60
2023-05-15T08:19:48.425Z,6.23
2023-05-15T08:22:15.845Z,7.60
2023-05-15T08:24:42.677Z,6.60
2023-05-15T08:27:09.767Z,6.67
2023-05-15T08:29:38.672Z,7.23
2023-05-15T08:32:07.592Z,6.43
2023-05-15T08:34:34.299Z,6.40
2023-05-15T08:37:00.952Z,6.30
2023-05-15T08:39:27.604Z,6.47
2023-05-15T08:42:05.894Z,7.23
2023-05-15T08:44:33.172Z,6.87
2023-05-15T08:47:00.037Z,6.17
2023-05-15T08:49:35.929Z,7.47
2023-05-15T08:52:04.406Z,6.43
2023-05-15T08:54:31.379Z,6.47
2023-05-15T08:56:58.217Z,6.40
2023-05-15T08:59:24.910Z,7.03
2023-05-15T09:01:52.436Z,6.63
2023-05-15T09:04:19.343Z,7.43
2023-05-15T09:06:47.727Z,7.50
2023-05-15T09:09:14.763Z,8.00
2023-05-15T09:11:45.579Z,9.70
2023-05-15T09:14:12.296Z,9.13
2023-05-15T09:16:39.430Z,9.43
2023-05-15T09:19:07.012Z,8.57
2023-05-15T09:21:34.315Z,9.90
2023-05-15T09:24:37.749Z,9.30
2023-05-15T09:27:08.678Z,8.40
2023-05-15T09:29:37.652Z,8.80
2023-05-15T09:32:09.703Z,8.60
2023-05-15T09:34:38.782Z,10.40
2023-05-15T09:37:07.682Z,9.30
2023-05-15T09:39:42.106Z,9.27
2023-05-15T09:42:14.825Z,9.13
2023-05-15T09:44:45.868Z,11.90
2023-05-15T09:47:14.119Z,10.53
2023-05-15T09:49:44.331Z,10.73
2023-05-15T09:52:11.248Z,12.00
2023-05-15T09:54:38.429Z,10.90
2023-05-15T09:57:09.756Z,11.00
2023-05-15T09:59:36.392Z,11.57
2023-05-15T10:02:03.103Z,11.50
2023-05-15T10:04:35.721Z,10.60
2023-05-15T10:07:02.550Z,10.00
2023-05-15T10:09:32.723Z,10.70
2023-05-15T10:11:59.394Z,12.47
2023-05-15T10:14:27.767Z,11.57
2023-05-15T10:16:56.970Z,10.43
2023-05-15T10:19:26.353Z,11.13
2023-05-15T10:21:56.026Z,10.37
2023-05-15T10:24:25.499Z,11.10
2023-05-15T10:26:55.409Z,11.27
2023-05-15T10:29:24.104Z,11.60
2023-05-15T10:31:52.332Z,12.67
2023-05-15T10:34:19.798Z,12.50
2023-05-15T10:36:46.806Z,11.43
2023-05-15T10:39:13.632Z,12.40
2023-05-15T10:41:40.705Z,11.70
2023-05-15T10:44:08.022Z,11.63
2023-05-15T10:46:36.675Z,11.37
2023-05-15T10:49:04.348Z,11.13
2023-05-15T10:51:36.813Z,11.17
2023-05-15T10:54:03.843Z,12.23
2023-05-15T10:56:32.042Z,11.33
2023-05-15T10:59:05.130Z,10.80
2023-05-15T11:01:35.129Z,10.53
2023-05-15T11:04:09.257Z,10.47
2023-05-15T11:06:38.042Z,11.30
2023-05-15T11:09:23.126Z,10.80
2023-05-15T11:11:52.895Z,11.30
2023-05-15T11:14:20.137Z,10.13
2023-05-15T11:16:52.655Z,9.90
2023-05-15T11:19:36.876Z,9.00
2023-05-15T11:22:23.025Z,9.13
2023-05-15T11:24:52.687Z,8.33
2023-05-15T11:27:26.532Z,9.40
2023-05-15T11:30:11.483Z,9.30
2023-05-15T11:32:45.164Z,10.27
2023-05-15T11:35:13.979Z,9.60
2023-05-15T11:37:46.122Z,7.87
2023-05-15T11:40:18.625Z,9.50
2023-05-15T11:43:02.784Z,9.23
2023-05-15T11:45:35.436Z,8.67
2023-05-15T11:48:04.288Z,7.93
2023-05-15T11:50:32.788Z,8.60
2023-05-15T11:53:07.180Z,9.03
2023-05-15T11:55:35.531Z,8.67
2023-05-15T11:58:02.931Z,8.80
2023-05-15T12:00:29.760Z,8.70
2023-05-15T12:02:56.965Z,8.90
2023-05-15T12:05:23.727Z,8.10
2023-05-15T12:07:50.475Z,8.07
2023-05-15T12:10:17.449Z,7.77
2023-05-15T12:12:46.142Z,8.27
2023-05-15T12:15:14.421Z,9.27
2023-05-15T12:17:42.496Z,8.33
2023-05-15T12:20:14.657Z,7.70
2023-05-15T12:22:42.570Z,8.47
2023-05-15T12:25:11.405Z,7.40
2023-05-15T12:27:41.665Z,5.90
2023-05-15T12:30:10.865Z,5.60
2023-05-15T12:32:38.851Z,5.83
2023-05-15T12:35:06.010Z,5.87
2023-05-15T12:37:34.872Z,6.83
2023-05-15T12:40:11.670Z,6.87
2023-05-15T12:42:42.952Z,8.40
2023-05-15T12:45:14.656Z,6.63
2023-05-15T12:47:45.609Z,6.00
2023-05-15T12:50:22.723Z,5.83
2023-05-15T12:52:53.663Z,5.70
2023-05-15T12:55:28.106Z,5.40
2023-05-15T12:57:59.033Z,6.20
2023-05-15T13:00:26.210Z,7.10
2023-05-15T13:02:54.877Z,5.70
2023-05-15T13:05:25.521Z,6.30
2023-05-15T13:07:52.686Z,6.27
2023-05-15T13:10:23.980Z,5.60
2023-05-15T13:12:52.534Z,6.13
2023-05-15T13:15:25.441Z,5.80
2023-05-15T13:17:58.327Z,6.03
2023-05-15T13:20:25.510Z,6.13
2023-05-15T13:22:52.306Z,5.70
2023-05-15T13:25:21.004Z,6.57
2023-05-15T13:27:48.538Z,6.00
2023-05-15T13:30:16.361Z,5.80
2023-05-15T13:32:43.313Z,6.47
2023-05-15T13:35:10.752Z,6.37
2023-05-15T13:37:38.235Z,6.03
2023-05-15T13:40:06.839Z,7.07
2023-05-15T13:42:33.520Z,6.83
2023-05-15T13:45:00.243Z,6.47
2023-05-15T13:47:26.937Z,7.03
2023-05-15T13:49:53.570Z,6.10
2023-05-15T13:52:20.549Z,6.60
2023-05-15T13:54:47.253Z,5.50
2023-05-15T13:57:13.892Z,5.20
2023-05-15T13:59:40.508Z,4.93
2023-05-15T14:02:07.118Z,5.20
2023-05-15T14:04:33.714Z,5.27
2023-05-15T14:07:00.794Z,5.47
2023-05-15T14:09:28.455Z,4.80
2023-05-15T14:11:55.234Z,4.47
2023-05-15T14:14:22.019Z,5.33
2023-05-15T14:16:48.799Z,5.40
2023-05-15T14:19:15.671Z,5.20
2023-05-15T14:21:42.326Z,4.90
2023-05-15T14:24:09.063Z,5.00
2023-05-15T14:26:35.762Z,5.20
2023-05-15T14:29:02.412Z,4.83
2023-05-15T14:31:29.078Z,5.17
2023-05-15T14:33:55.922Z,4.87
2023-05-15T14:36:22.566Z,4.80
2023-05-15T14:38:49.263Z,4.50
2023-05-15T14:41:15.916Z,4.70
2023-05-15T14:43:42.538Z,4.80
2023-05-15T14:46:11.293Z,3.70
2023-05-15T14:48:38.152Z,3.97
2023-05-15T14:51:05.214Z,4.30
2023-05-15T14:53:31.966Z,5.37
2023-05-15T14:55:58.707Z,7.13
2023-05-15T14:58:25.387Z,5.87
2023-05-15T15:00:51.983Z,6.50
2023-05-15T15:03:22.132Z,6.30
2023-05-15T15:05:48.920Z,5.93
2023-05-15T15:08:15.758Z,6.80
2023-05-15T15:10:43.606Z,6.40
2023-05-15T15:13:12.893Z,6.00
2023-05-15T15:15:40.588Z,7.00
2023-05-15T15:18:07.744Z,6.30
2023-05-15T15:20:34.570Z,6.27
2023-05-15T15:23:01.181Z,6.50
2023-05-15T15:25:30.168Z,6.30
2023-05-15T15:28:02.311Z,6.20
2023-05-15T15:30:29.049Z,6.50
2023-05-15T15:32:55.837Z,5.90
2023-05-15T15:35:23.210Z,6.20
2023-05-15T15:37:49.956Z,6.20
2023-05-15T15:40:17.887Z,6.43
2023-05-15T15:42:44.858Z,5.90
2023-05-15T15:45:11.517Z,5.83
2023-05-15T15:47:38.211Z,5.50
2023-05-15T15:50:05.370Z,5.90
2023-05-15T15:52:31.994Z,5.23
2023-05-15T15:54:58.641Z,6.07
2023-05-15T15:57:25.478Z,5.73
2023-05-15T15:59:52.189Z,6.40
2023-05-15T16:02:19.054Z,5.50
2023-05-15T16:04:45.733Z,5.60
2023-05-15T16:07:12.383Z,6.43
2023-05-15T16:09:39.125Z,5.65
2023-05-15T16:12:05.932Z,5.50
2023-05-15T16:14:32.611Z,5.50
2023-05-15T16:16:59.269Z,5.43
2023-05-15T16:19:25.909Z,5.50
2023-05-15T16:21:52.691Z,5.50
2023-05-15T16:24:19.353Z,5.60
2023-05-15T16:26:46.047Z,5.10
2023-05-15T16:29:12.679Z,5.40
2023-05-15T16:31:39.431Z,5.67
2023-05-15T16:34:06.177Z,6.27
2023-05-15T16:36:32.844Z,5.97
2023-05-15T16:39:01.298Z,5.57
2023-05-15T16:41:28.060Z,5.53
2023-05-15T16:43:54.742Z,6.63
2023-05-15T16:46:21.594Z,6.27
2023-05-15T16:48:48.268Z,6.50
2023-05-15T16:51:14.927Z,6.73
2023-05-15T16:53:41.572Z,6.30
2023-05-15T16:56:08.285Z,6.90
2023-05-15T16:58:34.919Z,7.13
2023-05-15T17:01:01.544Z,7.00
2023-05-15T17:03:28.349Z,7.20
2023-05-15T17:05:55.218Z,7.93
2023-05-15T17:08:21.845Z,7.80
2023-05-15T17:10:48.571Z,7.77
2023-05-15T17:13:15.813Z,7.50
2023-05-15T17:15:42.540Z,7.10
2023-05-15T17:18:09.241Z,7.17
2023-05-15T17:20:35.869Z,8.20
2023-05-15T17:23:02.512Z,7.60
2023-05-15T17:25:29.216Z,8.50
2023-05-15T17:27:55.841Z,8.17
2023-05-15T17:30:22.756Z,9.30
2023-05-15T17:32:49.512Z,7.50
2023-05-15T17:35:16.134Z,7.20
2023-05-15T17:37:42.769Z,7.67
2023-05-15T17:40:09.697Z,7.82
2023-05-15T17:42:36.340Z,7.10
2023-05-15T17:45:03.687Z,6.60
2023-05-15T17:47:30.367Z,6.07
2023-05-15T17:49:57.317Z,6.55
2023-05-15T17:52:23.922Z,6.00
2023-05-15T17:54:50.714Z,6.80
2023-05-15T17:57:17.350Z,6.13
2023-05-15T17:59:44.004Z,5.40
2023-05-15T18:02:10.624Z,6.23
2023-05-15T18:04:37.268Z,6.10
2023-05-15T18:07:04.014Z,6.90
2023-05-15T18:09:30.656Z,6.80
2023-05-15T18:11:57.299Z,6.63
2023-05-15T18:14:23.921Z,6.77
2023-05-15T18:16:50.945Z,6.60
2023-05-15T18:19:18.066Z,6.60
2023-05-15T18:21:44.890Z,6.40
2023-05-15T18:24:11.528Z,6.50
2023-05-15T18:26:38.158Z,6.32
2023-05-15T18:29:05.299Z,5.57
2023-05-15T18:31:32.147Z,6.07
2023-05-15T18:34:00.382Z,6.73
2023-05-15T18:36:27.012Z,6.17
2023-05-15T18:38:53.695Z,6.37
2023-05-15T18:41:20.991Z,6.63
2023-05-15T18:43:47.634Z,6.13
2023-05-15T18:46:14.267Z,6.35
2023-05-15T18:48:40.985Z,6.10
2023-05-15T18:51:08.428Z,6.22
2023-05-15T18:53:35.059Z,5.93
2023-05-15T18:56:01.671Z,6.30
2023-05-15T18:58:28.275Z,5.90
2023-05-15T19:00:56.377Z,6.47
2023-05-15T19:03:23.096Z,6.22
2023-05-15T19:05:49.803Z,6.60
2023-05-15T19:08:16.442Z,6.40
2023-05-15T19:10:48.626Z,7.30
2023-05-15T19:13:15.236Z,6.55
2023-05-15T19:15:53.376Z,6.35
2023-05-15T19:18:20.272Z,7.50
2023-05-15T19:20:50.296Z,7.40
2023-05-15T19:23:17.181Z,6.75
2023-05-15T19:25:44.944Z,7.55
2023-05-15T19:28:12.891Z,7.20
2023-05-15T19:30:39.523Z,6.57
2023-05-15T19:33:06.229Z,6.47
2023-05-15T19:35:34.573Z,7.50
2023-05-15T19:38:02.538Z,7.50
2023-05-15T19:40:29.164Z,7.18
2023-05-15T19:42:55.771Z,7.85
2023-05-15T19:45:22.472Z,7.20
2023-05-15T19:47:49.090Z,7.95
2023-05-15T19:50:15.812Z,8.18
2023-05-15T19:52:45.212Z,7.70
2023-05-15T19:55:12.402Z,9.95
2023-05-15T19:57:40.198Z,9.30
2023-05-15T20:00:08.077Z,8.23
2023-05-15T20:02:34.855Z,9.75
2023-05-15T20:05:01.583Z,8.68
2023-05-15T20:07:28.213Z,9.02
2023-05-15T20:09:55.756Z,9.15
2023-05-15T20:12:22.388Z,8.98
2023-05-15T20:14:49.746Z,9.77
2023-05-15T20:17:17.238Z,10.13
2023-05-15T20:19:44.014Z,9.50
2023-05-15T20:22:10.820Z,9.95
2023-05-15T20:24:38.587Z,9.80
2023-05-15T20:27:05.573Z,10.43
2023-05-15T20:29:32.182Z,12.65
2023-05-15T20:31:59.656Z,11.00
2023-05-15T20:34:26.346Z,12.45
2023-05-15T20:36:54.386Z,12.07
2023-05-15T20:39:21.309Z,12.27
2023-05-15T20:41:48.165Z,12.85
2023-05-15T20:44:14.932Z,11.75
2023-05-15T20:46:43.476Z,11.55
2023-05-15T20:49:10.821Z,10.68
2023-05-15T20:51:37.984Z,10.88
2023-05-15T20:54:04.738Z,12.10
2023-05-15T20:56:31.354Z,11.52
2023-05-15T20:58:59.792Z,13.32
2023-05-15T21:01:26.679Z,13.02
2023-05-15T21:03:53.397Z,12.32
2023-05-15T21:06:20.083Z,11.77
2023-05-15T21:08:46.685Z,12.98
2023-05-15T21:11:13.404Z,12.45
2023-05-15T21:13:40.034Z,12.63
2023-05-15T21:16:06.964Z,12.77
2023-05-15T21:18:33.627Z,11.00
2023-05-15T21:21:00.537Z,13.05
2023-05-15T21:23:27.355Z,13.50
2023-05-15T21:25:53.974Z,12.57
2023-05-15T21:28:20.607Z,12.90
2023-05-15T21:30:47.322Z,14.93
2023-05-15T21:33:13.973Z,13.02
2023-05-15T21:35:40.690Z,13.18
2023-05-15T21:38:07.321Z,13.50
2023-05-15T21:40:34.427Z,12.80
2023-05-15T21:43:01.054Z,13.30
2023-05-15T21:45:27.683Z,13.88
2023-05-15T21:47:54.347Z,14.20
2023-05-15T21:50:21.019Z,14.00
2023-05-15T21:52:50.751Z,13.38
2023-05-15T21:55:18.084Z,13.40
2023-05-15T21:57:44.919Z,14.32
2023-05-15T22:00:11.828Z,14.05
2023-05-15T22:02:38.558Z,13.80
2023-05-15T22:05:05.737Z,14.73
2023-05-15T22:07:32.349Z,14.98
2023-05-15T22:09:59.121Z,13.75
2023-05-15T22:12:26.574Z,14.40
2023-05-15T22:14:58.769Z,14.88
2023-05-15T22:17:28.926Z,14.80
2023-05-15T22:20:02.540Z,15.75
2023-05-15T22:22:29.199Z,15.15
2023-05-15T22:24:55.925Z,15.77
2023-05-15T22:27:22.514Z,16.55
2023-05-15T22:29:49.264Z,15.32
2023-05-15T22:32:15.864Z,14.88
2023-05-15T22:34:42.520Z,17.10
2023-05-15T22:37:10.620Z,16.90
2023-05-15T22:39:37.220Z,17.83
2023-05-15T22:42:04.274Z,18.23
2023-05-15T22:44:30.918Z,15.93
2023-05-15T22:46:57.522Z,17.13
2023-05-15T22:49:25.387Z,17.65
2023-05-15T22:51:53.653Z,17.45
2023-05-15T22:54:21.773Z,17.70
2023-05-15T22:56:50.019Z,18.20
2023-05-15T22:59:16.733Z,18.17
2023-05-15T23:01:44.346Z,19.20
2023-05-15T23:04:11.636Z,19.00
2023-05-15T23:06:38.902Z,19.15
2023-05-15T23:09:05.634Z,19.60
2023-05-15T23:11:32.253Z,19.20
2023-05-15T23:13:59.038Z,20.60
2023-05-15T23:16:26.035Z,19.70
2023-05-15T23:18:55.338Z,19.02
2023-05-15T23:21:22.038Z,19.48
2023-05-15T23:23:48.664Z,20.88
2023-05-15T23:26:15.459Z,19.75
2023-05-15T23:28:42.072Z,19.80
2023-05-15T23:31:09.841Z,19.10
2023-05-15T23:33:36.831Z,20.35
2023-05-15T23:36:03.583Z,19.85
2023-05-15T23:38:30.378Z,20.23
2023-05-15T23:40:57.016Z,20.40
2023-05-15T23:43:23.669Z,22.33
2023-05-15T23:45:50.318Z,21.05
2023-05-15T23:48:17.087Z,22.15
2023-05-15T23:50:44.074Z,22.80
2023-05-15T23:53:10.978Z,22.50
2023-05-15T23:55:37.830Z,22.33
2023-05-15T23:58:04.558Z,19.85
